Greenpond, New Jersey
Current Conditions -  °F | °C
As of 3:16 PM on Monday 26 Jan 2015 (Local Time) from KFWN Reporting Station
Light Snow Light Snow  
Wind Chill:   Ceiling: 2100
Heat Index: 17°   Visibility: 1mi
Dew Point: 12°   Wind: 10mph
Humidity: 81%   Direction: 40°NE
Pressure: 29.86"   Gusts: NA
Location:  41.058°N, 74.4257°W
Report Text: KFWN 262016Z AUTO 04009KT 1SM -SN BKN021 OVC029 M08/M11 A2986 RMK AO2 P0000 T10831111
Loading
Personal Weather Stations






























Interactive Weather Map New forecast layout! Learn more

10-Day Weather Forecast

Advertisements
Track Severe Weather on mobile